Time;durP1;ratioP1;P1;durP2;ratioP2;P2;SDS_P1;SDS_P2;PMS_P1;PMS_P2;Temp;Humidity;BMP_temperature;BMP_pressure;BME280_temperature;BME280_humidity;BME280_pressure;Samples;Min_cycle;Max_cycle;Signal;HPM_P1;HPM_P2
2022/12/16 00:00:22;;;;;;;49.63;19.35;;;;;;;;;;5037214;28;20056;-84
2022/12/16 00:02:49;;;;;;;48.97;18.48;;;;;;;;;;5019776;28;20029;-84
2022/12/16 00:05:15;;;;;;;46.42;19.33;;;;;;;;;;5037289;28;20048;-84
2022/12/16 00:07:40;;;;;;;48.97;18.92;;;;;;;;;;5037359;28;20029;-84
2022/12/16 00:10:07;;;;;;;49.25;19.25;;;;;;;;;;5037123;28;20046;-84
2022/12/16 00:12:32;;;;;;;48.65;18.90;;;;;;;;;;5019415;28;20072;-85
2022/12/16 00:14:58;;;;;;;51.00;19.95;;;;;;;;;;5019366;28;20048;-84
2022/12/16 00:17:23;;;;;;;50.22;19.25;;;;;;;;;;5019443;28;20053;-85
2022/12/16 00:19:49;;;;;;;50.65;19.27;;;;;;;;;;5018579;28;20033;-83
2022/12/16 00:22:15;;;;;;;51.85;19.23;;;;;;;;;;5036838;28;20401;-83
2022/12/16 00:24:40;;;;;;;48.58;18.77;;;;;;;;;;5036911;28;20044;-83
2022/12/16 00:27:06;;;;;;;51.80;19.38;;;;;;;;;;5036683;28;20040;-83
2022/12/16 00:29:31;;;;;;;46.15;18.92;;;;;;;;;;5019094;28;20033;-83
2022/12/16 00:31:57;;;;;;;48.67;18.38;;;;;;;;;;5036611;28;20034;-84
2022/12/16 00:34:22;;;;;;;48.47;18.15;;;;;;;;;;5036617;28;20536;-85
2022/12/16 00:36:48;;;;;;;50.00;19.58;;;;;;;;;;5036588;28;20500;-85
2022/12/16 00:39:13;;;;;;;47.58;18.65;;;;;;;;;;5036099;28;20037;-84
2022/12/16 00:41:39;;;;;;;51.30;18.77;;;;;;;;;;5036652;28;20398;-84
2022/12/16 00:44:04;;;;;;;47.72;18.13;;;;;;;;;;5035930;28;20067;-84
2022/12/16 00:46:30;;;;;;;40.97;16.55;;;;;;;;;;5036318;28;20049;-84
2022/12/16 00:48:56;;;;;;;38.45;16.23;;;;;;;;;;5036879;28;20029;-85
2022/12/16 00:51:21;;;;;;;42.85;17.48;;;;;;;;;;5035944;28;20049;-84
2022/12/16 00:53:47;;;;;;;42.58;17.63;;;;;;;;;;5036000;28;20033;-84
2022/12/16 00:56:18;;;;;;;42.60;17.10;;;;;;;;;;5018335;28;20029;-84
2022/12/16 00:58:44;;;;;;;36.65;16.38;;;;;;;;;;5019276;28;20033;-84
2022/12/16 01:01:10;;;;;;;42.92;17.38;;;;;;;;;;5018358;28;20030;-84
2022/12/16 01:03:37;;;;;;;37.53;15.85;;;;;;;;;;5035970;28;20042;-84
2022/12/16 01:06:08;;;;;;;40.40;15.80;;;;;;;;;;5001702;28;20038;-84
2022/12/16 01:08:33;;;;;;;33.65;15.57;;;;;;;;;;5036552;28;20030;-85
2022/12/16 01:10:59;;;;;;;34.83;15.43;;;;;;;;;;5018154;28;20029;-84
2022/12/16 01:13:24;;;;;;;38.28;16.88;;;;;;;;;;5036092;28;20025;-84
2022/12/16 01:15:50;;;;;;;36.30;15.77;;;;;;;;;;5035589;28;20030;-84
2022/12/16 01:18:16;;;;;;;36.15;16.00;;;;;;;;;;5035920;28;20065;-84
2022/12/16 01:20:42;;;;;;;37.78;15.85;;;;;;;;;;5017739;28;20147;-85
2022/12/16 01:23:08;;;;;;;39.35;15.05;;;;;;;;;;5018191;28;20053;-84
2022/12/16 01:25:34;;;;;;;40.65;17.25;;;;;;;;;;5035352;28;20045;-84
2022/12/16 01:27:59;;;;;;;30.90;14.85;;;;;;;;;;5050875;28;20083;-84
2022/12/16 01:30:25;;;;;;;33.58;15.38;;;;;;;;;;5001578;28;20071;-84
2022/12/16 01:32:50;;;;;;;35.53;15.10;;;;;;;;;;5035801;28;20041;-84
2022/12/16 01:35:16;;;;;;;37.38;15.13;;;;;;;;;;5035565;28;20029;-84
2022/12/16 01:37:42;;;;;;;41.22;16.60;;;;;;;;;;5017619;28;20063;-84
2022/12/16 01:40:18;;;;;;;38.60;15.90;;;;;;;;;;5035694;28;20043;-85
2022/12/16 01:42:44;;;;;;;42.75;17.00;;;;;;;;;;5001116;28;20048;-85
2022/12/16 01:45:30;;;;;;;39.88;16.30;;;;;;;;;;5035077;28;20042;-85
2022/12/16 01:48:00;;;;;;;42.28;16.13;;;;;;;;;;5035221;28;20493;-84
2022/12/16 01:50:27;;;;;;;42.88;16.67;;;;;;;;;;5035456;28;20116;-84
2022/12/16 01:52:56;;;;;;;41.25;16.45;;;;;;;;;;5035674;28;20037;-84
2022/12/16 01:55:29;;;;;;;38.70;16.42;;;;;;;;;;5017161;28;20037;-84
2022/12/16 01:58:01;;;;;;;40.40;16.40;;;;;;;;;;5035235;28;20413;-84
2022/12/16 02:00:27;;;;;;;42.72;17.05;;;;;;;;;;5017867;28;20033;-84
2022/12/16 02:02:54;;;;;;;48.33;17.48;;;;;;;;;;5035293;28;20036;-84
2022/12/16 02:05:20;;;;;;;43.38;16.63;;;;;;;;;;5038560;28;20048;-84
2022/12/16 02:07:57;;;;;;;36.67;15.68;;;;;;;;;;5038809;28;20099;-84
2022/12/16 02:10:41;;;;;;;44.70;16.63;;;;;;;;;;5038436;28;20051;-85
2022/12/16 02:13:19;;;;;;;39.90;15.27;;;;;;;;;;5038912;28;20143;-84
2022/12/16 02:16:25;;;;;;;43.10;16.55;;;;;;;;;;5038578;28;20037;-84
2022/12/16 02:19:22;;;;;;;37.45;14.52;;;;;;;;;;5054167;28;20040;-84
2022/12/16 02:22:15;;;;;;;35.95;14.88;;;;;;;;;;5038649;28;20044;-84
2022/12/16 02:24:55;;;;;;;35.25;14.48;;;;;;;;;;5037951;28;20037;-84
2022/12/16 02:27:45;;;;;;;33.03;12.88;;;;;;;;;;5038015;28;20048;-84
2022/12/16 02:30:35;;;;;;;38.80;15.00;;;;;;;;;;5038596;28;20033;-85
2022/12/16 02:33:09;;;;;;;37.00;14.50;;;;;;;;;;5066467;22;20506;-85
2022/12/16 02:35:38;;;;;;;;;;;;;;;;;;5004673;28;20044;-87
2022/12/16 02:38:20;;;;;;;31.73;13.88;;;;;;;;;;5038407;28;19924;-87
2022/12/16 02:41:10;;;;;;;30.98;13.18;;;;;;;;;;5039360;28;20041;-87
2022/12/16 02:43:56;;;;;;;30.90;13.32;;;;;;;;;;5037860;28;20037;-87
2022/12/16 02:46:26;;;;;;;29.92;12.68;;;;;;;;;;5037572;28;20067;-86
2022/12/16 02:48:53;;;;;;;32.90;13.18;;;;;;;;;;5019400;28;20029;-86
2022/12/16 02:51:21;;;;;;;35.45;14.57;;;;;;;;;;5037292;28;20494;-87
2022/12/16 02:53:49;;;;;;;32.47;13.43;;;;;;;;;;5037306;28;20041;-87
2022/12/16 02:56:37;;;;;;;33.72;14.10;;;;;;;;;;5034792;28;20044;-87
2022/12/16 02:59:18;;;;;;;32.28;13.23;;;;;;;;;;5034999;28;20037;-87
2022/12/16 03:02:16;;;;;;;31.05;12.68;;;;;;;;;;5034450;28;20033;-86
2022/12/16 03:04:55;;;;;;;33.35;13.80;;;;;;;;;;5018014;28;20054;-88
2022/12/16 03:07:25;;;;;;;30.60;13.27;;;;;;;;;;5037617;28;20044;-87
2022/12/16 03:09:53;;;;;;;29.52;12.70;;;;;;;;;;5037129;28;20034;-86
2022/12/16 03:12:20;;;;;;;31.15;12.77;;;;;;;;;;5036794;28;20052;-87
2022/12/16 03:14:49;;;;;;;29.63;12.85;;;;;;;;;;5035609;28;20053;-86
2022/12/16 03:17:16;;;;;;;28.52;12.50;;;;;;;;;;5018676;28;20053;-87
2022/12/16 03:19:48;;;;;;;31.52;14.25;;;;;;;;;;5036321;28;20474;-87
2022/12/16 03:22:19;;;;;;;32.88;13.63;;;;;;;;;;5035556;28;20037;-87
2022/12/16 03:24:45;;;;;;;30.15;13.32;;;;;;;;;;5017330;28;20550;-87
2022/12/16 03:27:26;;;;;;;31.85;13.38;;;;;;;;;;5034800;28;20034;-87
2022/12/16 03:29:58;;;;;;;28.20;13.18;;;;;;;;;;5017316;28;20037;-88
2022/12/16 03:32:44;;;;;;;30.40;13.63;;;;;;;;;;5016703;28;20033;-87
2022/12/16 03:35:34;;;;;;;27.17;12.30;;;;;;;;;;5016496;28;20049;-86
2022/12/16 03:38:04;;;;;;;26.75;12.98;;;;;;;;;;5034059;28;20498;-87
2022/12/16 03:40:31;;;;;;;27.17;11.35;;;;;;;;;;5039861;28;20051;-88
2022/12/16 03:42:58;;;;;;;28.60;12.40;;;;;;;;;;5035199;28;20030;-89
2022/12/16 03:45:36;;;;;;;26.70;12.15;;;;;;;;;;5016796;28;20140;-86
2022/12/16 03:48:02;;;;;;;24.63;11.90;;;;;;;;;;5016898;28;20029;-87
2022/12/16 03:50:33;;;;;;;24.58;10.95;;;;;;;;;;5016604;28;20025;-85
2022/12/16 03:52:58;;;;;;;24.63;11.35;;;;;;;;;;5016599;28;20055;-87
2022/12/16 03:55:24;;;;;;;23.08;10.10;;;;;;;;;;5033801;28;20120;-87
2022/12/16 03:57:49;;;;;;;23.85;10.57;;;;;;;;;;5016285;28;20079;-85
2022/12/16 04:00:15;;;;;;;22.35;10.55;;;;;;;;;;5015967;28;20067;-89
2022/12/16 04:02:41;;;;;;;22.50;10.55;;;;;;;;;;5033259;28;20038;-87
2022/12/16 04:05:07;;;;;;;21.13;10.50;;;;;;;;;;5033041;28;20044;-85
2022/12/16 04:07:33;;;;;;;21.27;9.75;;;;;;;;;;5019927;28;20056;-83
2022/12/16 04:09:58;;;;;;;19.00;9.45;;;;;;;;;;5040946;28;20453;-86
2022/12/16 04:26:14;;;;;;;17.02;8.25;;;;;;;;;;5033485;28;20486;-87
2022/12/16 04:28:40;;;;;;;18.70;8.52;;;;;;;;;;5016844;28;20025;-87
2022/12/16 04:31:05;;;;;;;16.58;8.48;;;;;;;;;;5033656;28;20049;-87
